Time;durP1;ratioP1;P1;durP2;ratioP2;P2;SDS_P1;SDS_P2;PMS_P1;PMS_P2;Temp;Humidity;BMP_temperature;BMP_pressure;BME280_temperature;BME280_humidity;BME280_pressure;Samples;Min_cycle;Max_cycle;Signal;HPM_P1;HPM_P2
2024/03/08 00:00:17;;;;;;;9.82;7.20;;;23.10;43.30;;;;;;6138815;28;80431;-60
2024/03/08 00:03:18;;;;;;;9.93;6.82;;;23.00;43.30;;;;;;6131533;28;81920;-60
2024/03/08 00:06:19;;;;;;;9.30;7.07;;;23.10;43.30;;;;;;6150298;28;80399;-60
2024/03/08 00:09:21;;;;;;;9.00;6.50;;;23.10;43.30;;;;;;6131956;28;81395;-60
2024/03/08 00:12:21;;;;;;;9.20;6.60;;;23.10;43.20;;;;;;6149657;28;81867;-62
2024/03/08 00:15:22;;;;;;;10.52;7.38;;;23.00;43.20;;;;;;6138402;28;81782;-63
2024/03/08 00:18:23;;;;;;;9.48;6.70;;;23.00;43.60;;;;;;6130889;28;80229;-66
2024/03/08 00:21:24;;;;;;;8.68;6.55;;;23.00;43.60;;;;;;6146366;28;82613;-63
2024/03/08 00:24:25;;;;;;;11.90;6.60;;;23.00;43.50;;;;;;6149854;28;81122;-65
2024/03/08 00:27:25;;;;;;;8.50;6.57;;;23.00;43.60;;;;;;6147331;28;83132;-64
2024/03/08 00:30:26;;;;;;;9.02;6.05;;;23.00;43.70;;;;;;6154786;28;80778;-65
2024/03/08 00:33:27;;;;;;;7.40;5.47;;;23.00;43.60;;;;;;6155081;28;80600;-65
2024/03/08 00:36:30;;;;;;;13.23;7.38;;;23.00;43.50;;;;;;6149723;28;80519;-64
2024/03/08 00:39:30;;;;;;;7.78;6.18;;;22.90;43.40;;;;;;6154012;28;80620;-64
2024/03/08 00:42:31;;;;;;;9.73;6.53;;;23.00;43.50;;;;;;6153537;28;80629;-64
2024/03/08 00:45:31;;;;;;;9.70;6.18;;;22.90;43.50;;;;;;6147938;28;80501;-63
2024/03/08 00:48:32;;;;;;;8.68;6.65;;;22.90;43.40;;;;;;6143816;28;80144;-65
2024/03/08 00:51:32;;;;;;;8.55;6.35;;;22.90;43.30;;;;;;6130790;28;80132;-64
2024/03/08 00:54:33;;;;;;;8.98;6.55;;;22.90;43.30;;;;;;6136993;28;81405;-65
2024/03/08 00:57:33;;;;;;;8.23;6.93;;;22.90;43.20;;;;;;6143816;28;80591;-65
2024/03/08 01:00:34;;;;;;;8.23;6.78;;;22.90;43.20;;;;;;6139539;28;81644;-65
2024/03/08 01:03:34;;;;;;;7.70;6.38;;;22.90;43.10;;;;;;6138633;28;81009;-64
2024/03/08 01:06:35;;;;;;;8.55;6.65;;;22.90;43.10;;;;;;6153775;28;81831;-65
2024/03/08 01:09:35;;;;;;;9.30;6.45;;;22.90;43.10;;;;;;6148808;28;82401;-65
2024/03/08 01:12:36;;;;;;;8.05;6.32;;;22.90;43.00;;;;;;6144511;28;80668;-67
2024/03/08 01:15:36;;;;;;;10.73;6.72;;;22.90;43.00;;;;;;6143633;28;81271;-64
2024/03/08 01:18:37;;;;;;;7.82;6.03;;;22.90;43.00;;;;;;6143289;28;80667;-65
2024/03/08 01:21:38;;;;;;;7.05;5.72;;;22.90;42.90;;;;;;6130415;28;81711;-66
2024/03/08 01:24:38;;;;;;;8.13;6.38;;;22.90;43.00;;;;;;6149588;28;80580;-66
2024/03/08 01:27:39;;;;;;;8.27;6.03;;;23.00;42.70;;;;;;6153038;28;80358;-65
2024/03/08 01:30:40;;;;;;;7.80;6.28;;;22.90;42.70;;;;;;6151118;28;80366;-66
2024/03/08 01:33:40;;;;;;;8.48;6.15;;;22.90;42.70;;;;;;6152218;28;81591;-66
2024/03/08 01:36:41;;;;;;;9.65;6.43;;;22.90;42.70;;;;;;6131577;28;80676;-66
2024/03/08 01:39:41;;;;;;;9.25;6.32;;;22.90;42.60;;;;;;6130805;28;82737;-63
2024/03/08 01:42:42;;;;;;;9.10;7.25;;;22.90;42.60;;;;;;6131797;28;81234;-62
2024/03/08 01:45:42;;;;;;;8.05;6.07;;;22.90;42.60;;;;;;6151034;28;80706;-64
2024/03/08 01:48:43;;;;;;;8.27;6.07;;;22.90;42.70;;;;;;6139348;28;80678;-64
2024/03/08 01:51:43;;;;;;;11.45;6.50;;;22.90;42.60;;;;;;6148539;28;80649;-63
2024/03/08 01:54:44;;;;;;;11.18;6.63;;;22.90;42.70;;;;;;6131249;28;80862;-64
2024/03/08 01:57:44;;;;;;;9.68;6.88;;;22.90;42.80;;;;;;6130868;28;80666;-63
2024/03/08 02:00:45;;;;;;;8.23;6.10;;;22.90;42.80;;;;;;6134778;28;80896;-62
2024/03/08 02:03:46;;;;;;;7.20;5.80;;;22.90;42.80;;;;;;6147931;28;80784;-66
2024/03/08 02:06:47;;;;;;;9.00;6.55;;;22.90;42.80;;;;;;6145520;28;80930;-64
2024/03/08 02:09:48;;;;;;;7.22;6.03;;;22.90;42.70;;;;;;6149749;28;81060;-64
2024/03/08 02:12:48;;;;;;;9.40;5.82;;;22.90;42.60;;;;;;6129433;28;81210;-60
2024/03/08 02:15:49;;;;;;;8.00;6.50;;;22.90;42.70;;;;;;6130162;28;80900;-64
2024/03/08 02:18:49;;;;;;;7.97;6.43;;;22.90;42.70;;;;;;6129497;28;81508;-64
2024/03/08 02:21:50;;;;;;;7.70;6.07;;;22.90;42.60;;;;;;6131398;28;80637;-64
2024/03/08 02:24:50;;;;;;;7.72;6.20;;;22.90;42.50;;;;;;6150599;28;81976;-62
2024/03/08 02:27:51;;;;;;;8.10;6.28;;;22.90;42.70;;;;;;6133600;28;81142;-62
2024/03/08 02:30:55;;;;;;;8.25;6.35;;;22.90;42.70;;;;;;6129788;28;82273;-61
2024/03/08 02:33:55;;;;;;;8.48;6.50;;;22.90;42.70;;;;;;6152435;28;81089;-62
2024/03/08 02:36:56;;;;;;;8.73;6.32;;;22.90;42.70;;;;;;6143588;28;80954;-62
2024/03/08 02:39:57;;;;;;;8.40;6.25;;;22.90;42.60;;;;;;6152069;28;80301;-63
2024/03/08 02:42:58;;;;;;;11.23;7.03;;;22.90;42.70;;;;;;6129734;28;80521;-63
2024/03/08 02:45:59;;;;;;;8.68;6.45;;;22.90;42.60;;;;;;6130367;28;82829;-64
2024/03/08 02:49:00;;;;;;;9.27;6.40;;;22.90;42.70;;;;;;6129212;28;81292;-63
2024/03/08 02:52:01;;;;;;;8.25;6.25;;;22.90;42.60;;;;;;6129097;28;81672;-63
2024/03/08 02:55:02;;;;;;;7.63;6.45;;;22.90;42.60;;;;;;6128504;28;80901;-63
2024/03/08 02:58:08;;;;;;;8.43;6.22;;;22.90;42.60;;;;;;6144522;28;80501;-65
2024/03/08 03:01:10;;;;;;;9.02;6.70;;;22.90;42.40;;;;;;6149802;28;80742;-65
2024/03/08 03:04:11;;;;;;;11.95;7.45;;;22.90;42.40;;;;;;6138371;28;81817;-64
2024/03/08 03:07:11;;;;;;;10.10;6.78;;;22.90;43.00;;;;;;6142798;28;85164;-64
2024/03/08 03:10:16;;;;;;;7.05;6.00;;;22.90;42.40;;;;;;6132064;28;81053;-64
2024/03/08 03:13:19;;;;;;;8.77;6.50;;;22.90;42.50;;;;;;6128073;28;82551;-64
2024/03/08 03:16:19;;;;;;;9.13;7.18;;;22.90;42.40;;;;;;6127481;28;80051;-63
2024/03/08 03:19:20;;;;;;;9.65;7.22;;;22.90;42.40;;;;;;6127547;28;80679;-65
2024/03/08 03:22:21;;;;;;;9.95;6.70;;;22.90;42.40;;;;;;6142491;28;80810;-64
2024/03/08 03:25:35;;;;;;;11.60;6.95;;;22.90;42.50;;;;;;6139844;28;80267;-63
2024/03/08 03:28:39;;;;;;;9.98;6.90;;;22.90;42.60;;;;;;6151212;28;80352;-64
2024/03/08 03:31:40;;;;;;;8.88;6.47;;;22.90;42.50;;;;;;6148614;28;80393;-65
2024/03/08 03:34:40;;;;;;;8.43;7.00;;;22.90;42.60;;;;;;6148483;28;80932;-64
2024/03/08 03:37:43;;;;;;;9.90;6.93;;;22.90;42.40;;;;;;6145305;28;80599;-62
2024/03/08 03:40:45;;;;;;;8.98;7.15;;;22.90;42.40;;;;;;6137551;28;81169;-63
2024/03/08 03:43:47;;;;;;;10.85;7.22;;;22.90;42.40;;;;;;6145319;28;81422;-64
2024/03/08 03:46:48;;;;;;;10.45;7.10;;;22.90;42.50;;;;;;6147538;28;80787;-64
2024/03/08 03:49:48;;;;;;;10.43;8.45;;;22.90;42.50;;;;;;6153205;28;80510;-64
2024/03/08 03:52:49;;;;;;;8.02;6.55;;;22.90;42.50;;;;;;6156394;28;80427;-65
2024/03/08 03:55:49;;;;;;;10.02;7.80;;;22.90;42.40;;;;;;6155707;28;80748;-65
2024/03/08 03:58:51;;;;;;;9.05;6.97;;;22.90;42.50;;;;;;6141808;28;80563;-66
2024/03/08 04:01:51;;;;;;;10.95;8.10;;;22.90;42.30;;;;;;6143352;28;80232;-61
2024/03/08 04:04:52;;;;;;;10.32;7.57;;;22.90;42.40;;;;;;6152287;28;83031;-62
2024/03/08 04:07:52;;;;;;;9.13;7.22;;;22.90;42.30;;;;;;6144553;28;84958;-63
2024/03/08 04:10:53;;;;;;;9.93;7.70;;;22.90;42.20;;;;;;6143606;28;80340;-63
2024/03/08 04:13:54;;;;;;;9.80;7.78;;;22.90;42.20;;;;;;6142280;28;84841;-62
2024/03/08 04:16:55;;;;;;;11.63;8.02;;;22.90;42.50;;;;;;6143369;28;83299;-64
2024/03/08 04:19:55;;;;;;;10.00;8.02;;;22.90;42.50;;;;;;6133588;28;82056;-62
2024/03/08 04:22:56;;;;;;;10.13;7.55;;;23.00;42.20;;;;;;6143898;28;80366;-61
2024/03/08 04:25:56;;;;;;;10.35;7.95;;;23.00;42.10;;;;;;6133979;28;80835;-60
2024/03/08 04:28:57;;;;;;;11.57;8.10;;;23.10;41.90;;;;;;6134622;28;80447;-61
2024/03/08 04:31:58;;;;;;;11.90;8.73;;;23.10;41.80;;;;;;6141936;28;82509;-56
2024/03/08 04:35:01;;;;;;;11.93;8.63;;;23.10;42.20;;;;;;6136990;28;85039;-60
2024/03/08 04:38:01;;;;;;;12.80;8.25;;;23.10;41.50;;;;;;6146649;28;80736;-61
2024/03/08 04:41:02;;;;;;;10.32;8.13;;;23.20;41.60;;;;;;6134932;28;80854;-63
2024/03/08 04:44:03;;;;;;;10.90;8.02;;;23.20;41.40;;;;;;6132364;28;80519;-64
2024/03/08 04:47:04;;;;;;;11.93;8.13;;;23.30;41.60;;;;;;6132543;28;80843;-66
2024/03/08 04:50:04;;;;;;;11.75;8.10;;;23.30;41.50;;;;;;6132719;28;80532;-61
2024/03/08 04:53:07;;;;;;;12.80;8.93;;;23.30;41.30;;;;;;6133836;28;81692;-63
2024/03/08 04:56:08;;;;;;;14.00;8.75;;;23.30;41.10;;;;;;6136306;28;80758;-66
2024/03/08 04:59:08;;;;;;;12.15;8.65;;;23.30;41.50;;;;;;6145598;28;81162;-67
2024/03/08 05:02:09;;;;;;;12.98;8.65;;;23.40;41.10;;;;;;6134453;28;80878;-65
2024/03/08 05:05:12;;;;;;;10.43;8.82;;;23.40;41.20;;;;;;6150407;28;80798;-61
2024/03/08 05:08:12;;;;;;;12.45;9.43;;;23.40;41.30;;;;;;6130303;28;80840;-63
2024/03/08 05:11:14;;;;;;;13.98;9.35;;;23.40;41.00;;;;;;6143118;28;80540;-70
2024/03/08 05:14:16;;;;;;;11.57;9.10;;;23.40;41.10;;;;;;6139066;28;81890;-60
2024/03/08 05:17:17;;;;;;;13.05;9.40;;;23.40;41.20;;;;;;6134835;28;82049;-66
2024/03/08 05:20:19;;;;;;;11.88;8.70;;;23.40;41.30;;;;;;6147953;28;80946;-55
2024/03/08 05:23:19;;;;;;;9.82;8.18;;;23.40;41.30;;;;;;6148332;28;82325;-57
2024/03/08 05:26:22;;;;;;;13.55;9.20;;;23.40;41.50;;;;;;6149168;28;80472;-58
2024/03/08 05:29:23;;;;;;;17.67;8.90;;;23.40;41.50;;;;;;6149752;28;82503;-60
2024/03/08 05:32:24;;;;;;;16.63;9.70;;;23.50;42.00;;;;;;6142307;28;80811;-62
2024/03/08 05:35:25;;;;;;;13.95;8.35;;;23.50;42.20;;;;;;6148011;28;80990;-62
2024/03/08 05:38:25;;;;;;;21.65;9.10;;;23.50;42.30;;;;;;6148366;28;81149;-62
2024/03/08 05:41:26;;;;;;;15.20;8.63;;;23.50;41.90;;;;;;6147681;28;80920;-65
2024/03/08 05:44:28;;;;;;;13.98;8.48;;;23.50;41.70;;;;;;6147611;28;80812;-64
2024/03/08 05:47:29;;;;;;;12.63;9.57;;;23.60;41.80;;;;;;6147087;28;81268;-61
2024/03/08 05:50:29;;;;;;;10.75;8.15;;;23.60;41.90;;;;;;6147762;28;80815;-60
2024/03/08 05:53:33;;;;;;;14.52;9.05;;;23.60;41.80;;;;;;6136893;28;80902;-61
2024/03/08 05:56:34;;;;;;;12.38;9.00;;;23.50;42.00;;;;;;6144162;28;81473;-60
2024/03/08 05:59:34;;;;;;;12.13;8.98;;;23.50;42.20;;;;;;6143995;28;80462;-61
2024/03/08 06:02:40;;;;;;;12.48;8.38;;;23.50;42.30;;;;;;6146750;28;80513;-60
2024/03/08 06:05:41;;;;;;;13.73;8.43;;;23.50;42.40;;;;;;6151008;28;81512;-62
2024/03/08 06:08:43;;;;;;;12.50;8.13;;;23.50;42.40;;;;;;6153066;28;80408;-61
2024/03/08 06:11:43;;;;;;;12.55;7.78;;;23.50;42.60;;;;;;6151540;28;80999;-60
2024/03/08 06:14:44;;;;;;;11.43;8.07;;;23.50;42.70;;;;;;6141262;28;80557;-61
2024/03/08 06:17:44;;;;;;;12.57;8.27;;;23.40;42.60;;;;;;6150883;28;80659;-58
2024/03/08 06:20:46;;;;;;;14.23;8.63;;;23.40;42.70;;;;;;6152900;28;80805;-61
2024/03/08 06:23:46;;;;;;;19.13;9.30;;;23.40;42.70;;;;;;6134483;28;88651;-57
2024/03/08 06:26:47;;;;;;;15.32;9.23;;;23.40;42.70;;;;;;6139590;28;81762;-60
2024/03/08 06:29:49;;;;;;;14.25;8.70;;;23.40;42.70;;;;;;6143557;28;82853;-63
2024/03/08 06:32:49;;;;;;;19.52;9.32;;;23.40;42.60;;;;;;6149798;28;80835;-61
2024/03/08 06:35:50;;;;;;;13.23;9.23;;;23.40;42.50;;;;;;6148966;28;80804;-61
2024/03/08 06:38:50;;;;;;;13.40;9.55;;;23.30;42.30;;;;;;6144761;28;80509;-62
2024/03/08 06:41:51;;;;;;;14.38;10.40;;;23.30;42.60;;;;;;6149015;28;81259;-61
2024/03/08 06:44:55;;;;;;;16.00;9.00;;;23.30;42.30;;;;;;6114135;28;85665;-60
2024/03/08 06:47:56;;;;;;;13.07;8.85;;;23.30;42.60;;;;;;6143486;28;83588;-62
2024/03/08 06:50:56;;;;;;;14.05;9.65;;;23.30;42.80;;;;;;6152191;28;80567;-60
2024/03/08 06:53:57;;;;;;;25.80;10.63;;;23.30;42.90;;;;;;6149011;28;81161;-57
2024/03/08 06:56:57;;;;;;;14.25;9.73;;;23.30;43.00;;;;;;6149072;28;83236;-60
2024/03/08 06:59:58;;;;;;;14.20;9.38;;;23.20;42.70;;;;;;6151910;28;83141;-61
2024/03/08 07:03:02;;;;;;;14.98;10.15;;;23.20;43.00;;;;;;6150436;28;87095;-61
2024/03/08 07:06:02;;;;;;;17.63;9.27;;;23.20;42.70;;;;;;6138243;28;82974;-61
2024/03/08 07:09:03;;;;;;;21.00;10.10;;;23.20;42.60;;;;;;6146029;28;83020;-60
2024/03/08 07:12:04;;;;;;;18.77;10.35;;;23.20;42.30;;;;;;6147623;28;83660;-60
2024/03/08 07:15:04;;;;;;;15.73;10.02;;;23.20;42.30;;;;;;6135084;28;83302;-61
2024/03/08 07:18:05;;;;;;;15.70;10.40;;;23.20;42.10;;;;;;6118981;28;83569;-61
2024/03/08 07:21:06;;;;;;;15.35;9.85;;;23.20;42.50;;;;;;6134814;28;83860;-62
2024/03/08 07:24:23;;;;;;;15.30;9.90;;;23.20;42.70;;;;;;6144222;28;83384;-61
2024/03/08 07:27:23;;;;;;;15.68;9.75;;;23.20;43.00;;;;;;6144713;28;80034;-60
2024/03/08 07:33:44;;;;;;;15.48;9.73;;;23.20;43.40;;;;;;6146175;28;82259;-60
2024/03/08 07:36:44;;;;;;;15.10;9.85;;;23.20;43.10;;;;;;6149605;28;80641;-59
2024/03/08 07:39:45;;;;;;;14.43;9.02;;;23.20;43.10;;;;;;6131173;28;86244;-59
2024/03/08 07:42:45;;;;;;;16.90;10.77;;;23.20;43.10;;;;;;6139813;28;80594;-59
2024/03/08 07:45:46;;;;;;;12.88;9.68;;;23.20;43.20;;;;;;6134627;28;83165;-64
2024/03/08 07:48:46;;;;;;;15.10;10.63;;;23.10;44.40;;;;;;6141974;28;84733;-61
2024/03/08 07:51:49;;;;;;;18.27;11.05;;;23.10;45.10;;;;;;6144031;28;82986;-62
2024/03/08 07:54:49;;;;;;;17.63;10.73;;;23.10;45.20;;;;;;6146768;28;83145;-62
2024/03/08 07:57:50;;;;;;;14.07;10.35;;;23.00;46.00;;;;;;6144416;28;83431;-61
2024/03/08 08:00:50;;;;;;;18.88;11.15;;;23.00;45.90;;;;;;6141398;28;83016;-60
2024/03/08 08:03:51;;;;;;;17.42;11.50;;;23.00;46.10;;;;;;6146324;28;83391;-57
2024/03/08 08:06:51;;;;;;;16.75;10.65;;;23.00;46.10;;;;;;6128108;28;84227;-58
2024/03/08 08:09:52;;;;;;;13.18;10.15;;;22.90;46.60;;;;;;6144751;28;85272;-61
2024/03/08 08:12:52;;;;;;;26.52;12.10;;;22.90;46.50;;;;;;6140511;28;84233;-61
2024/03/08 08:15:53;;;;;;;17.70;11.30;;;22.90;47.10;;;;;;6137836;28;83245;-59
2024/03/08 08:18:54;;;;;;;14.95;10.55;;;22.90;47.10;;;;;;6145526;28;83025;-61
2024/03/08 08:21:55;;;;;;;18.38;11.38;;;22.90;47.50;;;;;;6133844;28;84036;-60
2024/03/08 08:24:56;;;;;;;14.27;10.07;;;22.90;47.00;;;;;;6155136;28;83570;-58
2024/03/08 08:27:56;;;;;;;18.42;10.55;;;22.90;47.80;;;;;;6138288;28;84457;-57
2024/03/08 08:30:57;;;;;;;15.38;10.70;;;22.90;47.70;;;;;;6143358;28;83514;-60
2024/03/08 08:34:00;;;;;;;13.82;10.00;;;22.90;48.40;;;;;;6130508;28;83489;-57
2024/03/08 08:37:01;;;;;;;13.88;10.15;;;23.00;48.10;;;;;;6094340;28;85704;-60
2024/03/08 08:40:05;;;;;;;15.38;9.45;;;23.00;48.40;;;;;;6104552;28;84558;-59
2024/03/08 08:43:06;;;;;;;13.73;9.35;;;23.10;48.40;;;;;;6123231;28;84788;-60
2024/03/08 08:46:07;;;;;;;12.23;9.18;;;23.10;48.20;;;;;;6116707;28;84911;-60
2024/03/08 08:49:10;;;;;;;14.05;10.10;;;23.10;48.60;;;;;;6123997;28;81041;-60
2024/03/08 08:52:11;;;;;;;14.18;9.77;;;23.20;49.00;;;;;;6123385;28;87342;-60
2024/03/08 08:55:14;;;;;;;13.45;9.77;;;23.20;48.70;;;;;;6136291;28;84400;-60
2024/03/08 08:58:15;;;;;;;14.85;10.23;;;23.20;48.70;;;;;;6128608;28;84368;-60
2024/03/08 09:01:18;;;;;;;15.80;9.50;;;23.20;48.40;;;;;;6128128;28;83919;-61
2024/03/08 09:04:19;;;;;;;16.98;9.52;;;23.30;48.40;;;;;;6124284;28;84858;-60
2024/03/08 09:07:19;;;;;;;15.70;9.57;;;23.30;48.40;;;;;;6128264;28;81409;-60
2024/03/08 09:10:21;;;;;;;14.90;8.95;;;23.30;48.40;;;;;;6133435;28;82238;-60
2024/03/08 09:13:21;;;;;;;16.70;10.27;;;23.30;48.20;;;;;;6131704;28;82321;-60
2024/03/08 09:16:22;;;;;;;12.40;9.35;;;23.30;48.20;;;;;;6120417;28;84720;-60
2024/03/08 09:19:25;;;;;;;13.75;9.68;;;23.40;48.20;;;;;;6127894;28;82893;-60
2024/03/08 09:22:26;;;;;;;16.88;9.18;;;23.40;48.00;;;;;;6131009;28;84077;-61
2024/03/08 09:25:26;;;;;;;11.60;8.80;;;23.40;48.00;;;;;;6135699;28;81347;-61
2024/03/08 09:28:27;;;;;;;15.32;8.85;;;23.50;48.10;;;;;;6129410;28;84482;-60
2024/03/08 09:31:27;;;;;;;15.43;9.32;;;23.40;48.20;;;;;;6128109;28;82091;-60
2024/03/08 09:34:28;;;;;;;14.77;9.10;;;23.50;48.40;;;;;;6128075;28;85719;-61
2024/03/08 09:37:28;;;;;;;13.25;9.48;;;23.50;48.10;;;;;;6130290;28;81476;-61
2024/03/08 09:40:29;;;;;;;15.85;9.30;;;23.50;48.00;;;;;;6135229;28;81816;-60
2024/03/08 09:43:30;;;;;;;11.85;8.40;;;23.50;48.10;;;;;;6125975;28;80769;-59
2024/03/08 09:46:31;;;;;;;15.30;9.55;;;23.50;48.00;;;;;;6129417;28;80868;-60
2024/03/08 09:49:31;;;;;;;11.63;8.75;;;23.50;47.80;;;;;;6134772;28;80882;-61
2024/03/08 09:52:32;;;;;;;12.88;8.68;;;23.60;47.70;;;;;;6130753;28;81872;-58
2024/03/08 09:55:34;;;;;;;13.65;9.07;;;23.60;47.70;;;;;;6135276;28;81498;-58
2024/03/08 10:01:35;;;;;;;12.13;9.38;;;23.60;47.40;;;;;;6129083;28;83107;-58
2024/03/08 10:04:36;;;;;;;12.27;8.77;;;23.50;47.20;;;;;;6541738;22;83079;-61
2024/03/08 10:07:37;;;;;;;13.63;8.48;;;23.60;48.00;;;;;;6110150;28;81780;-57
2024/03/08 10:10:37;;;;;;;12.82;8.38;;;23.60;47.50;;;;;;6115822;28;82674;-56
2024/03/08 10:13:38;;;;;;;13.30;8.52;;;23.60;47.60;;;;;;6120040;28;81807;-56
2024/03/08 10:16:39;;;;;;;17.48;8.70;;;23.50;47.90;;;;;;6144635;28;80905;-57
2024/03/08 10:19:41;;;;;;;13.68;8.73;;;23.60;48.00;;;;;;6138057;28;80451;-58
2024/03/08 10:22:44;;;;;;;13.93;9.88;;;23.50;48.30;;;;;;6144408;28;83513;-59
2024/03/08 10:25:45;;;;;;;14.65;8.63;;;23.60;48.30;;;;;;6149050;28;82848;-58
2024/03/08 10:28:47;;;;;;;17.15;9.23;;;23.50;48.50;;;;;;6140354;28;80490;-59
2024/03/08 10:31:50;;;;;;;12.52;8.38;;;23.50;48.60;;;;;;6152692;28;80515;-53
2024/03/08 10:34:51;;;;;;;12.10;8.68;;;23.50;48.60;;;;;;6152408;28;82270;-57
2024/03/08 10:37:58;;;;;;;17.67;8.65;;;23.50;48.60;;;;;;6161183;28;80941;-54
2024/03/08 10:40:58;;;;;;;18.63;9.05;;;23.50;48.30;;;;;;6154157;28;85042;-66
2024/03/08 10:43:59;;;;;;;14.48;9.52;;;23.50;48.30;;;;;;6147336;28;80270;-65
2024/03/08 10:47:00;;;;;;;16.38;10.15;;;23.40;47.40;;;;;;6149583;28;82046;-71
2024/03/08 10:50:03;;;;;;;13.60;9.75;;;23.40;47.70;;;;;;6148352;28;83892;-66
2024/03/08 10:53:06;;;;;;;14.93;9.90;;;23.30;47.30;;;;;;6153024;28;81793;-72
2024/03/08 10:56:07;;;;;;;14.20;9.48;;;23.30;46.50;;;;;;6157526;28;80333;-64
2024/03/08 10:59:08;;;;;;;16.48;10.30;;;23.40;46.00;;;;;;6148738;28;80756;-55
2024/03/08 11:02:09;;;;;;;20.25;11.55;;;23.30;46.90;;;;;;6148069;28;89011;-59
2024/03/08 11:05:09;;;;;;;17.25;11.88;;;23.30;45.50;;;;;;6161965;28;83372;-57
2024/03/08 11:08:10;;;;;;;29.25;13.70;;;23.20;46.90;;;;;;6173305;28;83041;-58
2024/03/08 11:11:10;;;;;;;25.45;16.40;;;23.10;45.40;;;;;;6168919;28;83413;-57
2024/03/08 11:14:11;;;;;;;24.13;16.55;;;23.00;41.30;;;;;;6170896;28;82865;-58
2024/03/08 11:17:14;;;;;;;24.40;17.10;;;22.80;39.70;;;;;;6171862;28;83182;-66
2024/03/08 11:20:17;;;;;;;23.38;16.35;;;22.60;40.20;;;;;;6171192;28;84379;-67
2024/03/08 11:23:18;;;;;;;26.90;18.13;;;22.60;39.80;;;;;;6172232;28;83307;-66
2024/03/08 11:26:18;;;;;;;28.17;18.23;;;22.10;36.50;;;;;;6171343;28;83374;-65
2024/03/08 11:29:19;;;;;;;25.40;16.15;;;21.60;36.90;;;;;;6173143;28;83927;-67
2024/03/08 11:32:21;;;;;;;24.40;18.15;;;21.50;37.10;;;;;;6172562;28;83910;-67
2024/03/08 11:35:22;;;;;;;24.35;16.63;;;21.20;36.00;;;;;;6171115;28;83313;-57
2024/03/08 11:38:23;;;;;;;24.27;15.10;;;21.40;37.20;;;;;;6171690;28;83393;-55
2024/03/08 11:41:23;;;;;;;23.75;15.15;;;21.70;38.20;;;;;;6171429;28;84171;-57
2024/03/08 11:44:24;;;;;;;21.42;15.60;;;21.70;37.00;;;;;;6172759;28;84815;-60
2024/03/08 11:47:26;;;;;;;20.20;13.75;;;21.80;37.10;;;;;;6172282;28;83842;-60
2024/03/08 11:50:27;;;;;;;20.55;13.88;;;22.00;37.90;;;;;;6170009;28;83900;-60
2024/03/08 11:53:27;;;;;;;17.80;12.68;;;22.30;38.20;;;;;;6172571;28;83472;-61
2024/03/08 11:56:28;;;;;;;20.00;13.50;;;22.40;38.90;;;;;;6169272;28;86551;-58
2024/03/08 11:59:30;;;;;;;18.38;11.38;;;22.60;38.90;;;;;;6172353;28;83665;-58
2024/03/08 12:02:31;;;;;;;17.90;11.52;;;22.80;39.90;;;;;;6162096;28;85129;-61
2024/03/08 12:05:33;;;;;;;14.07;10.70;;;22.90;40.20;;;;;;6128140;28;86168;-58
2024/03/08 12:08:33;;;;;;;15.27;9.63;;;23.10;40.70;;;;;;6156906;28;83506;-57
2024/03/08 12:11:34;;;;;;;11.23;8.27;;;23.20;41.70;;;;;;6168644;28;81745;-54
2024/03/08 12:14:34;;;;;;;11.48;8.10;;;23.40;41.80;;;;;;6169128;28;81149;-58
2024/03/08 12:17:35;;;;;;;11.98;7.68;;;23.60;42.40;;;;;;6160452;28;80881;-57
2024/03/08 12:20:35;;;;;;;10.00;6.65;;;23.70;42.10;;;;;;6163666;28;80510;-55
2024/03/08 12:23:36;;;;;;;9.13;6.32;;;23.70;42.00;;;;;;6174925;28;82241;-61
2024/03/08 12:26:37;;;;;;;9.95;6.78;;;23.70;41.80;;;;;;6167678;28;81285;-59
2024/03/08 12:29:38;;;;;;;8.75;6.25;;;23.80;42.20;;;;;;6173397;28;80588;-70
2024/03/08 12:32:40;;;;;;;10.80;6.30;;;23.80;42.20;;;;;;6172427;28;80655;-71
2024/03/08 12:35:42;;;;;;;7.63;5.78;;;24.00;41.90;;;;;;6159131;28;82777;-73
2024/03/08 12:38:42;;;;;;;11.20;6.75;;;24.00;42.20;;;;;;6170460;28;83219;-74
2024/03/08 12:41:43;;;;;;;7.45;5.53;;;24.10;41.80;;;;;;6166383;28;80544;-73
2024/03/08 12:44:43;;;;;;;8.63;6.18;;;24.10;42.10;;;;;;6166279;28;81111;-69
2024/03/08 12:47:44;;;;;;;10.93;5.80;;;24.20;42.00;;;;;;6146444;28;82548;-72
2024/03/08 12:50:47;;;;;;;9.73;6.50;;;24.30;41.90;;;;;;6154665;28;82384;-70
2024/03/08 12:53:47;;;;;;;9.93;6.50;;;24.30;41.90;;;;;;6149401;28;82733;-71
2024/03/08 12:56:49;;;;;;;10.35;6.50;;;24.40;41.80;;;;;;6150943;28;81765;-71
2024/03/08 12:59:51;;;;;;;9.48;6.20;;;24.40;41.80;;;;;;6154716;28;81707;-71
2024/03/08 13:02:51;;;;;;;10.00;6.07;;;24.40;41.90;;;;;;6149729;28;81833;-70
2024/03/08 13:05:52;;;;;;;9.40;6.63;;;24.50;41.90;;;;;;6157078;28;81272;-70
2024/03/08 13:08:53;;;;;;;8.50;6.43;;;24.50;41.70;;;;;;6156189;28;82111;-72
2024/03/08 13:11:55;;;;;;;13.38;6.90;;;24.60;41.90;;;;;;6151604;28;81673;-68
2024/03/08 13:14:56;;;;;;;16.58;5.78;;;24.60;41.80;;;;;;6156748;28;83209;-70
2024/03/08 13:17:59;;;;;;;12.95;6.18;;;24.60;42.30;;;;;;6155702;28;81164;-71
2024/03/08 13:21:04;;;;;;;13.82;6.60;;;24.70;42.40;;;;;;6146264;28;82757;-71
2024/03/08 13:24:05;;;;;;;13.90;6.78;;;24.70;42.90;;;;;;6139064;28;82941;-73
2024/03/08 13:27:16;;;;;;;10.02;6.25;;;24.70;42.70;;;;;;6151726;28;81785;-60
2024/03/08 13:30:18;;;;;;;11.98;6.32;;;24.80;42.90;;;;;;6155150;28;81735;-61
2024/03/08 13:33:20;;;;;;;17.40;6.95;;;24.80;42.80;;;;;;6150154;28;81919;-61
2024/03/08 13:36:20;;;;;;;9.02;5.90;;;24.90;43.10;;;;;;6155547;28;81159;-63
2024/03/08 13:39:24;;;;;;;7.63;5.65;;;24.90;43.00;;;;;;6157038;28;82007;-64
2024/03/08 13:42:25;;;;;;;8.07;6.13;;;24.90;42.60;;;;;;6167078;28;81254;-63
2024/03/08 13:45:25;;;;;;;12.25;6.07;;;24.90;42.30;;;;;;6174499;28;81166;-59
2024/03/08 13:48:26;;;;;;;11.02;5.72;;;24.90;42.60;;;;;;6177143;28;80119;-62
2024/03/08 13:51:26;;;;;;;8.68;6.32;;;24.90;42.60;;;;;;6177136;28;80877;-63
2024/03/08 13:54:27;;;;;;;14.60;5.82;;;24.90;42.50;;;;;;6177954;28;81101;-62
2024/03/08 13:57:28;;;;;;;7.80;5.63;;;24.90;42.50;;;;;;6177616;28;80760;-63
2024/03/08 14:00:33;;;;;;;7.63;5.57;;;24.90;42.30;;;;;;6177428;28;81473;-61
2024/03/08 14:03:33;;;;;;;12.50;5.93;;;24.90;42.30;;;;;;6177374;28;80507;-58
2024/03/08 14:06:35;;;;;;;11.27;6.68;;;24.90;42.50;;;;;;6177137;28;81101;-61
2024/03/08 14:09:39;;;;;;;14.18;5.93;;;24.90;42.80;;;;;;6167295;28;80493;-63
2024/03/08 14:12:39;;;;;;;22.10;7.03;;;24.90;43.30;;;;;;6173481;28;82189;-63
2024/03/08 14:15:42;;;;;;;11.20;6.10;;;24.80;44.20;;;;;;6175870;28;80609;-64
2024/03/08 14:18:42;;;;;;;28.38;6.75;;;24.80;43.50;;;;;;6176896;28;81604;-62
2024/03/08 14:21:43;;;;;;;18.35;6.25;;;24.90;43.40;;;;;;6175039;28;82645;-71
2024/03/08 14:24:44;;;;;;;16.35;5.90;;;24.80;43.40;;;;;;6172592;28;81485;-68
2024/03/08 14:27:45;;;;;;;13.38;5.47;;;24.80;43.40;;;;;;6174516;28;81092;-69
2024/03/08 14:30:45;;;;;;;9.90;6.10;;;24.80;43.80;;;;;;6176675;28;81178;-67
2024/03/08 14:33:49;;;;;;;7.82;5.80;;;24.70;43.80;;;;;;6176658;28;80699;-69
2024/03/08 14:36:49;;;;;;;5.97;4.55;;;24.70;44.30;;;;;;6174864;28;84853;-69
2024/03/08 14:39:52;;;;;;;10.48;5.60;;;24.70;43.70;;;;;;6171865;28;81320;-69
2024/03/08 14:42:52;;;;;;;11.95;5.90;;;24.70;43.60;;;;;;6178255;28;80855;-68
2024/03/08 14:45:53;;;;;;;5.88;5.25;;;24.70;43.60;;;;;;6175886;28;83351;-69
2024/03/08 14:48:53;;;;;;;11.20;6.00;;;24.70;43.50;;;;;;6177275;28;80889;-69
2024/03/08 14:51:54;;;;;;;8.70;6.13;;;24.70;43.50;;;;;;6178622;28;88176;-74
2024/03/08 14:54:55;;;;;;;8.43;5.72;;;24.60;43.50;;;;;;6178096;28;80682;-67
2024/03/08 14:57:56;;;;;;;12.13;5.63;;;24.60;43.30;;;;;;6178220;28;80865;-67
2024/03/08 15:01:00;;;;;;;7.40;5.15;;;24.60;43.50;;;;;;6179300;28;80304;-66
2024/03/08 15:04:08;;;;;;;8.80;5.95;;;24.60;44.10;;;;;;6174502;28;80215;-68
2024/03/08 15:07:09;;;;;;;14.70;6.30;;;24.60;44.10;;;;;;6186225;28;81124;-67
2024/03/08 15:10:20;;;;;;;12.93;4.95;;;24.60;44.10;;;;;;6174875;28;82643;-66
2024/03/08 15:13:22;;;;;;;11.68;4.93;;;24.60;44.40;;;;;;6181737;28;80619;-67
2024/03/08 15:16:23;;;;;;;10.88;5.97;;;24.60;44.30;;;;;;6175263;28;80643;-72
2024/03/08 15:19:25;;;;;;;9.70;5.95;;;24.60;44.40;;;;;;6173356;28;85300;-68
2024/03/08 15:22:25;;;;;;;18.70;5.63;;;24.60;44.40;;;;;;6174727;28;80927;-67
2024/03/08 15:25:26;;;;;;;12.02;6.28;;;24.60;44.70;;;;;;6182186;28;80475;-59
2024/03/08 15:28:35;;;;;;;12.45;5.95;;;24.60;44.90;;;;;;6167866;28;81853;-60
2024/03/08 15:31:37;;;;;;;11.18;5.15;;;24.60;44.80;;;;;;6181003;28;80364;-61
2024/03/08 15:34:38;;;;;;;10.60;5.63;;;24.60;45.00;;;;;;6173940;28;80796;-61
2024/03/08 15:37:42;;;;;;;11.23;5.15;;;24.50;44.80;;;;;;6177721;28;80699;-60